Time;durP1;ratioP1;P1;durP2;ratioP2;P2;SDS_P1;SDS_P2;PMS_P1;PMS_P2;Temp;Humidity;BMP_temperature;BMP_pressure;BME280_temperature;BME280_humidity;BME280_pressure;Samples;Min_cycle;Max_cycle;Signal;HPM_P1;HPM_P2
2024/03/06 00:02:22;;;;;;;20.50;13.90;;;;;;;5.45;61.87;99971.59;106339;1254;60329;-79
2024/03/06 00:04:49;;;;;;;21.00;14.40;;;;;;;5.47;61.80;99974.45;106185;1257;69911;-78
2024/03/06 00:07:15;;;;;;;24.90;16.40;;;;;;;5.46;61.83;99973.09;106050;1260;72684;-80
2024/03/06 00:09:42;;;;;;;22.10;13.80;;;;;;;5.45;61.88;99971.09;106315;1251;60427;-77
2024/03/06 00:12:09;;;;;;;19.60;14.60;;;;;;;5.43;61.82;99970.24;106403;1256;60457;-80
2024/03/06 00:14:36;;;;;;;21.70;15.00;;;;;;;5.39;61.96;99976.85;106246;1257;73639;-77
2024/03/06 00:17:04;;;;;;;18.10;14.00;;;;;;;5.37;61.88;99975.69;106169;1259;70242;-77
2024/03/06 00:19:31;;;;;;;20.70;14.30;;;;;;;5.36;62.13;99979.02;106201;1264;71374;-80
2024/03/06 00:21:58;;;;;;;21.90;14.40;;;;;;;5.37;61.97;99978.83;106475;1254;60504;-79
2024/03/06 00:24:25;;;;;;;22.20;14.40;;;;;;;5.36;62.02;99981.54;106193;1258;60534;-78
2024/03/06 00:26:51;;;;;;;22.50;14.30;;;;;;;5.32;61.92;99981.80;106257;1253;73658;-78
2024/03/06 00:29:18;;;;;;;19.80;14.30;;;;;;;5.30;61.99;99982.86;106610;1254;70190;-80
2024/03/06 00:31:47;;;;;;;22.10;14.70;;;;;;;5.29;62.13;99980.81;106934;1254;72564;-77
2024/03/06 00:34:15;;;;;;;24.10;15.50;;;;;;;5.29;62.02;99984.55;108874;1253;58104;-77
2024/03/06 00:36:43;;;;;;;21.20;13.90;;;;;;;5.28;62.07;99986.42;108269;1256;60455;-80
2024/03/06 00:39:10;;;;;;;20.40;14.30;;;;;;;5.27;62.11;99982.73;106435;1255;72430;-79
2024/03/06 00:41:37;;;;;;;18.40;13.90;;;;;;;5.27;61.92;99984.73;106526;1255;70177;-81
2024/03/06 00:44:03;;;;;;;20.30;14.20;;;;;;;5.27;62.20;99987.86;106319;1254;71350;-80
2024/03/06 00:46:30;;;;;;;21.20;14.40;;;;;;;5.27;62.02;99989.59;106180;1254;61812;-80
2024/03/06 00:48:57;;;;;;;22.40;13.60;;;;;;;5.25;62.03;99992.23;106497;1253;60604;-80
2024/03/06 00:51:23;;;;;;;22.60;15.00;;;;;;;5.23;62.10;99992.79;106529;1257;72638;-78
2024/03/06 00:54:07;;;;;;;20.50;15.10;;;;;;;5.19;62.12;99996.61;106538;1254;70282;-80
2024/03/06 00:56:39;;;;;;;23.60;14.80;;;;;;;5.15;62.20;99998.75;106784;1256;73647;-78
2024/03/06 00:59:06;;;;;;;24.10;15.20;;;;;;;5.09;62.45;99996.17;106802;1256;60300;-78
2024/03/06 01:01:34;;;;;;;24.80;15.70;;;;;;;5.05;62.59;99996.35;107015;1254;60546;-76
2024/03/06 01:04:00;;;;;;;22.00;14.50;;;;;;;5.01;62.78;99993.49;107034;1257;73611;-79
2024/03/06 01:06:27;;;;;;;20.60;15.90;;;;;;;4.98;63.14;99994.63;107399;1254;70116;-77
2024/03/06 01:08:55;;;;;;;21.70;15.30;;;;;;;4.95;63.25;99993.69;106831;1254;70481;-80
2024/03/06 01:11:22;;;;;;;24.00;15.70;;;;;;;4.90;63.52;99992.50;106886;1254;60428;-81
2024/03/06 01:13:48;;;;;;;24.50;16.30;;;;;;;4.84;63.69;99989.80;106710;1253;60892;-79
2024/03/06 01:16:15;;;;;;;23.60;17.10;;;;;;;4.81;64.06;99989.36;106539;1256;73887;-80
2024/03/06 01:18:42;;;;;;;35.80;17.00;;;;;;;4.80;64.23;99995.39;106886;1255;70099;-79
2024/03/06 01:21:08;;;;;;;26.50;17.60;;;;;;;4.79;64.32;99996.40;107444;1257;71680;-78
2024/03/06 01:23:35;;;;;;;24.40;16.90;;;;;;;4.77;64.51;99997.24;107735;1254;60289;-78
2024/03/06 01:26:01;;;;;;;24.80;17.00;;;;;;;4.73;64.77;99999.33;108676;1253;60398;-81
2024/03/06 01:28:28;;;;;;;26.20;17.40;;;;;;;4.70;64.98;99998.34;109397;1254;72247;-81
2024/03/06 01:30:55;;;;;;;24.90;17.40;;;;;;;4.68;65.00;99996.90;107587;1251;68813;-81
2024/03/06 01:33:22;;;;;;;29.20;16.40;;;;;;;4.75;65.04;100001.43;106942;1257;71398;-80
2024/03/06 01:35:48;;;;;;;26.90;18.00;;;;;;;4.84;65.08;100001.58;106769;1257;60430;-80
2024/03/06 01:38:15;;;;;;;29.10;18.30;;;;;;;4.86;65.14;100006.67;106380;1254;60865;-81
2024/03/06 01:45:02;;;;;;;23.70;17.80;;;;;;;4.85;65.27;100008.37;106319;1257;69023;-80
2024/03/06 01:47:29;;;;;;;27.80;17.60;;;;;;;4.82;65.31;100007.03;105940;1258;73008;-78
2024/03/06 01:49:56;;;;;;;25.90;18.20;;;;;;;4.78;65.34;100006.66;106211;1254;60633;-78
2024/03/06 01:52:22;;;;;;;24.70;17.60;;;;;;;4.74;65.51;100007.84;106202;1254;60444;-79
2024/03/06 01:54:49;;;;;;;26.80;19.50;;;;;;;4.67;65.72;100007.30;106450;1256;72675;-78
2024/03/06 01:57:17;;;;;;;26.30;18.00;;;;;;;4.59;65.36;100004.11;106001;1259;70194;-79
2024/03/06 01:59:43;;;;;;;24.20;18.00;;;;;;;4.53;65.67;100009.15;106390;1256;72520;-79
2024/03/06 02:02:13;;;;;;;35.90;22.10;;;;;;;4.46;65.94;100010.21;106731;1255;60457;-79
2024/03/06 02:04:40;;;;;;;29.90;20.20;;;;;;;4.42;66.07;100011.57;106968;1254;60510;-81
2024/03/06 02:07:13;;;;;;;25.30;18.80;;;;;;;4.39;65.99;100012.36;106637;1256;73569;-80
2024/03/06 02:09:40;;;;;;;30.30;19.60;;;;;;;4.36;66.21;100012.98;107068;1251;70142;-78
2024/03/06 02:12:09;;;;;;;29.00;18.20;;;;;;;4.33;66.39;100012.30;108078;1254;71253;-80
2024/03/06 02:14:36;;;;;;;27.10;19.00;;;;;;;4.31;66.47;100016.70;107615;1251;60418;-79
2024/03/06 02:17:03;;;;;;;24.50;18.70;;;;;;;4.35;66.54;100020.71;106580;1251;60492;-79
2024/03/06 02:19:40;;;;;;;24.60;17.70;;;;;;;4.44;66.55;100023.39;108843;1253;73742;-79
2024/03/06 02:22:07;;;;;;;27.80;18.60;;;;;;;4.44;66.71;100026.20;109168;1254;69074;-79
2024/03/06 02:24:36;;;;;;;25.40;18.20;;;;;;;4.44;66.56;100027.95;107787;1251;71056;-80
2024/03/06 02:27:05;;;;;;;26.80;18.80;;;;;;;4.42;67.00;100031.26;107024;1253;60300;-79
2024/03/06 02:29:32;;;;;;;27.50;19.70;;;;;;;4.41;67.13;100034.52;106339;1251;60533;-77
2024/03/06 02:32:02;;;;;;;26.50;20.30;;;;;;;4.39;67.28;100033.75;106298;1256;74084;-78
2024/03/06 02:34:32;;;;;;;29.60;21.80;;;;;;;4.35;67.12;100031.27;106401;1251;69658;-77
2024/03/06 02:36:59;;;;;;;27.20;20.50;;;;;;;4.32;67.33;100034.30;106620;1254;71393;-76
2024/03/06 02:39:25;;;;;;;29.70;21.60;;;;;;;4.29;67.35;100029.27;106710;1252;60470;-77
2024/03/06 02:41:52;;;;;;;27.70;19.70;;;;;;;4.24;67.61;100033.04;106377;1254;60514;-78
2024/03/06 02:44:19;;;;;;;28.60;20.40;;;;;;;4.18;67.53;100037.02;106526;1257;73891;-77
2024/03/06 02:46:50;;;;;;;30.40;20.70;;;;;;;4.14;67.88;100038.16;106655;1254;70199;-78
2024/03/06 02:49:16;;;;;;;28.30;21.90;;;;;;;4.19;67.66;100039.23;106751;1257;71204;-78
2024/03/06 02:51:43;;;;;;;34.40;20.50;;;;;;;4.20;67.93;100038.64;107017;1253;60357;-76
2024/03/06 02:54:10;;;;;;;31.10;21.80;;;;;;;4.13;68.13;100038.77;108388;1254;60433;-77
2024/03/06 02:56:37;;;;;;;28.10;22.00;;;;;;;4.08;68.12;100042.83;108676;1251;72357;-79
2024/03/06 02:59:04;;;;;;;29.10;22.10;;;;;;;4.07;68.26;100043.98;109032;1254;69042;-78
2024/03/06 03:01:30;;;;;;;30.20;21.60;;;;;;;4.07;68.43;100046.12;108685;1251;71329;-79
2024/03/06 03:03:58;;;;;;;31.20;22.50;;;;;;;4.03;68.62;100046.19;108906;1251;58223;-77
2024/03/06 03:06:25;;;;;;;29.60;21.70;;;;;;;4.00;68.74;100048.86;108700;1253;60277;-80
2024/03/06 03:08:52;;;;;;;35.30;21.70;;;;;;;3.98;68.59;100049.05;108520;1251;73612;-78
2024/03/06 03:11:18;;;;;;;32.10;24.20;;;;;;;3.99;68.87;100050.95;108484;1254;70874;-78
2024/03/06 03:13:45;;;;;;;32.40;22.40;;;;;;;3.97;68.84;100051.59;109437;1251;71235;-78
2024/03/06 03:16:20;;;;;;;29.60;20.80;;;;;;;4.01;68.64;100050.23;109000;1251;60374;-76
2024/03/06 03:18:47;;;;;;;29.30;21.10;;;;;;;4.07;68.87;100051.35;107981;1251;59102;-78
2024/03/06 03:21:15;;;;;;;32.60;21.10;;;;;;;4.08;68.88;100055.15;108186;1253;71303;-80
2024/03/06 03:23:41;;;;;;;30.40;22.40;;;;;;;4.07;68.77;100056.08;108599;1251;68843;-78
2024/03/06 03:26:11;;;;;;;32.40;22.50;;;;;;;4.08;68.72;100058.48;107437;1251;72607;-78
2024/03/06 03:28:39;;;;;;;31.00;23.10;;;;;;;4.10;68.62;100054.96;106862;1254;60581;-78
2024/03/06 03:31:08;;;;;;;33.90;23.10;;;;;;;4.09;68.71;100056.61;106543;1256;60774;-76
2024/03/06 03:33:38;;;;;;;35.70;24.60;;;;;;;4.04;68.48;100057.87;106849;1252;73826;-75
2024/03/06 03:36:08;;;;;;;33.10;23.70;;;;;;;3.96;68.66;100066.42;106651;1251;70720;-77
2024/03/06 03:38:38;;;;;;;33.20;24.10;;;;;;;3.87;68.81;100067.08;106799;1257;72787;-77
2024/03/06 03:41:09;;;;;;;35.20;24.10;;;;;;;3.81;68.95;100069.65;107234;1254;60388;-78
2024/03/06 03:43:36;;;;;;;35.50;23.70;;;;;;;3.80;69.29;100071.77;107498;1251;60451;-80
2024/03/06 03:46:04;;;;;;;32.30;23.00;;;;;;;3.86;69.12;100074.70;106813;1256;73942;-79
2024/03/06 03:48:31;;;;;;;30.80;22.40;;;;;;;3.83;69.12;100078.26;107037;1254;70307;-77
2024/03/06 03:51:04;;;;;;;29.20;22.20;;;;;;;3.78;69.32;100079.88;107201;1254;71244;-78
2024/03/06 03:53:31;;;;;;;33.90;23.60;;;;;;;3.73;69.38;100082.79;107180;1251;60437;-78
2024/03/06 03:55:59;;;;;;;33.90;23.70;;;;;;;3.70;69.56;100087.80;106637;1254;60448;-78
2024/03/06 03:58:26;;;;;;;34.30;23.60;;;;;;;3.66;69.36;100089.48;106307;1255;74132;-77
2024/03/06 04:00:54;;;;;;;35.80;23.40;;;;;;;3.61;69.48;100088.46;106859;1251;68814;-79
2024/03/06 04:03:22;;;;;;;33.80;24.20;;;;;;;3.57;69.64;100091.08;106897;1254;71126;-78
2024/03/06 04:05:49;;;;;;;32.20;22.60;;;;;;;3.52;69.69;100094.56;109264;1251;59618;-79
2024/03/06 04:08:15;;;;;;;34.10;23.30;;;;;;;3.55;69.73;100097.86;108985;1251;58796;-80
2024/03/06 04:10:51;;;;;;;33.30;23.00;;;;;;;3.63;69.75;100102.89;107249;1251;73699;-81
2024/03/06 04:13:20;;;;;;;37.30;23.50;;;;;;;3.62;69.83;100105.54;107241;1251;69454;-81
2024/03/06 04:15:47;;;;;;;33.60;23.30;;;;;;;3.60;69.75;100107.49;106897;1253;72719;-80
2024/03/06 04:18:13;;;;;;;33.90;24.60;;;;;;;3.55;69.69;100109.79;106500;1251;60434;-81
2024/03/06 04:20:40;;;;;;;35.50;24.40;;;;;;;3.51;69.74;100114.96;106613;1251;60532;-81
2024/03/06 04:23:07;;;;;;;37.20;24.80;;;;;;;3.47;69.63;100117.40;106665;1254;72430;-78
2024/03/06 04:25:34;;;;;;;39.70;25.60;;;;;;;3.41;69.67;100122.91;106584;1251;68177;-78
2024/03/06 04:28:02;;;;;;;40.10;25.80;;;;;;;3.33;69.74;100126.39;107990;1253;72631;-77
2024/03/06 04:30:29;;;;;;;37.20;25.20;;;;;;;3.29;69.81;100127.44;107918;1251;215702;-78
2024/03/06 04:34:07;;;;;;;35.90;23.70;;;;;;;3.37;69.74;100132.77;104603;1290;599982;-78
2024/03/06 04:36:35;;;;;;;34.00;23.70;;;;;;;3.38;69.90;100135.67;105762;1268;58941;-79
2024/03/06 04:39:07;;;;;;;35.00;25.70;;;;;;;3.35;69.91;100140.50;105468;1272;59116;-81
2024/03/06 04:41:35;;;;;;;40.10;27.00;;;;;;;3.29;69.82;100140.16;105736;1270;72295;-82
2024/03/06 04:44:02;;;;;;;37.90;26.00;;;;;;;3.24;69.96;100142.35;105889;1271;69128;-83
2024/03/06 04:46:30;;;;;;;40.90;27.40;;;;;;;3.19;70.11;100142.48;105679;1266;72078;-78
2024/03/06 04:48:57;;;;;;;37.60;27.50;;;;;;;3.16;70.10;100143.42;105200;1266;181936;-78
2024/03/06 04:51:25;;;;;;;47.00;29.10;;;;;;;3.11;70.37;100140.60;105627;1263;59311;-77
2024/03/06 04:53:52;;;;;;;38.80;26.10;;;;;;;3.08;70.18;100140.87;105875;1263;71189;-80
2024/03/06 04:56:21;;;;;;;37.50;24.80;;;;;;;3.10;70.24;100139.44;107993;1263;70231;-79
2024/03/06 04:58:51;;;;;;;38.20;26.10;;;;;;;3.17;70.27;100140.05;108557;1251;73755;-76
2024/03/06 05:01:19;;;;;;;37.00;25.00;;;;;;;3.15;70.08;100148.35;106296;1256;59604;-77
2024/03/06 05:03:46;;;;;;;40.80;27.30;;;;;;;3.13;70.12;100146.29;106167;1251;59736;-78
2024/03/06 05:06:31;;;;;;;38.90;27.90;;;;;;;3.11;70.20;100150.92;106013;1250;70604;-76
2024/03/06 05:09:17;;;;;;;36.80;27.00;;;;;;;3.09;70.10;100155.64;106095;1250;70023;-78
2024/03/06 05:12:02;;;;;;;36.40;27.40;;;;;;;3.06;69.99;100155.88;106187;1253;71057;-78
2024/03/06 05:14:47;;;;;;;40.50;27.10;;;;;;;3.03;70.00;100161.02;106070;1250;59727;-75
2024/03/06 05:17:32;;;;;;;43.70;27.50;;;;;;;3.01;70.05;100165.20;106040;1251;60060;-77
2024/03/06 05:20:17;;;;;;;39.10;25.40;;;;;;;2.98;70.08;100166.23;105891;1251;71656;-77
2024/03/06 05:23:02;;;;;;;36.50;26.20;;;;;;;3.04;70.08;100166.36;105960;1252;69553;-76
2024/03/06 05:25:47;;;;;;;38.00;27.50;;;;;;;3.14;70.08;100163.88;106069;1253;71441;-77
2024/03/06 05:28:33;;;;;;;38.70;25.80;;;;;;;3.17;70.02;100165.21;105935;1250;59606;-78
2024/03/06 05:31:18;;;;;;;38.50;26.30;;;;;;;3.17;69.99;100170.69;106003;1250;60001;-76
2024/03/06 05:34:05;;;;;;;40.90;29.10;;;;;;;3.14;70.14;100172.92;105832;1253;73102;-77
2024/03/06 05:36:50;;;;;;;39.60;26.80;;;;;;;3.13;70.30;100171.31;105961;1257;68051;-78
2024/03/06 05:39:35;;;;;;;43.00;28.50;;;;;;;3.13;70.20;100172.02;105790;1254;71475;-77
2024/03/06 05:42:20;;;;;;;40.60;27.50;;;;;;;3.11;70.19;100176.88;106111;1256;59747;-78
2024/03/06 05:45:10;;;;;;;40.20;28.40;;;;;;;3.10;70.19;100179.86;106753;1253;59621;-75
2024/03/06 05:47:55;;;;;;;39.80;26.90;;;;;;;3.11;70.13;100180.53;108853;1253;72070;-77
2024/03/06 05:50:40;;;;;;;39.50;25.70;;;;;;;3.19;69.72;100178.56;107176;1253;68696;-79
2024/03/06 05:53:25;;;;;;;39.50;27.40;;;;;;;3.28;69.59;100183.68;106075;1258;70281;-76
2024/03/06 05:56:10;;;;;;;41.50;27.70;;;;;;;3.26;69.60;100184.20;106333;1253;59882;-78
2024/03/06 05:58:55;;;;;;;39.10;27.40;;;;;;;3.23;69.46;100189.30;107737;1253;59626;-78
2024/03/06 06:01:22;;;;;;;41.20;28.10;;;;;;;3.20;69.30;100191.10;106674;1253;72032;-74
2024/03/06 06:03:50;;;;;;;45.50;28.80;;;;;;;3.18;69.22;100187.90;105643;1252;69174;-74
2024/03/06 06:06:19;;;;;;;39.00;26.50;;;;;;;3.15;69.32;100188.80;105654;1253;72643;-74
2024/03/06 06:08:46;;;;;;;39.10;27.90;;;;;;;3.11;69.18;100192.59;105564;1252;59720;-72
2024/03/06 06:11:14;;;;;;;41.10;26.20;;;;;;;3.08;69.25;100191.77;105489;1259;60036;-74
2024/03/06 06:13:41;;;;;;;44.00;29.40;;;;;;;3.04;69.16;100192.27;105833;1257;73073;-75
2024/03/06 06:16:09;;;;;;;44.90;28.60;;;;;;;2.98;69.25;100193.21;105769;1258;68711;-74
2024/03/06 06:18:36;;;;;;;46.90;27.80;;;;;;;2.99;69.35;100197.49;105811;1256;73021;-75
2024/03/06 06:21:07;;;;;;;42.40;26.90;;;;;;;3.05;69.33;100200.73;105818;1253;59696;-72
2024/03/06 06:23:35;;;;;;;40.70;27.50;;;;;;;3.03;69.11;100204.19;105566;1258;60381;-71
2024/03/06 06:26:03;;;;;;;38.80;26.50;;;;;;;2.99;69.06;100205.37;105613;1253;73089;-74
2024/03/06 06:28:30;;;;;;;40.90;28.70;;;;;;;2.95;68.95;100211.91;105648;1255;68751;-74
2024/03/06 06:30:58;;;;;;;42.80;29.70;;;;;;;2.89;68.99;100212.33;105536;1253;71291;-73
2024/03/06 06:33:25;;;;;;;45.80;28.60;;;;;;;2.83;68.92;100212.58;105938;1258;59683;-73
2024/03/06 06:35:53;;;;;;;48.10;29.70;;;;;;;2.78;68.90;100211.90;106404;1253;59706;-72
2024/03/06 06:38:21;;;;;;;46.50;29.00;;;;;;;2.75;68.78;100215.79;107136;1254;72108;-70
2024/03/06 06:40:50;;;;;;;46.10;30.70;;;;;;;2.70;68.98;100223.95;106255;1253;70575;-73
2024/03/06 06:43:18;;;;;;;47.90;30.10;;;;;;;2.67;69.02;100219.48;105589;1256;72503;-76
2024/03/06 06:45:45;;;;;;;44.80;27.70;;;;;;;2.70;69.21;100222.19;107182;1253;59661;-79
2024/03/06 06:48:13;;;;;;;38.50;26.70;;;;;;;2.81;68.97;100222.02;105889;1255;61116;-78
2024/03/06 06:50:40;;;;;;;40.80;28.60;;;;;;;2.84;68.97;100224.92;106010;1257;73156;-80
2024/03/06 06:53:08;;;;;;;45.90;30.90;;;;;;;2.87;68.93;100230.89;106120;1253;72926;-78
2024/03/06 06:55:36;;;;;;;47.20;28.80;;;;;;;2.91;68.90;100233.91;106440;1254;72612;-79
2024/03/06 06:58:03;;;;;;;50.50;29.80;;;;;;;2.98;68.82;100233.78;106518;1253;61654;-77
2024/03/06 07:00:32;;;;;;;41.50;28.60;;;;;;;3.05;68.78;100237.66;106681;1256;59911;-78
2024/03/06 07:03:00;;;;;;;51.50;31.80;;;;;;;3.13;68.64;100236.55;106000;1253;71826;-79
2024/03/06 07:05:27;;;;;;;44.30;28.90;;;;;;;3.19;68.42;100237.75;106303;1258;71196;-79
2024/03/06 07:07:55;;;;;;;46.60;30.70;;;;;;;3.21;68.28;100240.38;105972;1258;73650;-78
2024/03/06 07:10:23;;;;;;;43.90;30.20;;;;;;;3.21;67.95;100248.23;106026;1260;59725;-78
2024/03/06 07:12:51;;;;;;;50.00;30.90;;;;;;;3.21;67.89;100243.00;106073;1253;59659;-78
2024/03/06 07:15:18;;;;;;;48.20;31.40;;;;;;;3.21;67.73;100250.55;105676;1259;75064;-78
2024/03/06 07:17:46;;;;;;;51.10;32.70;;;;;;;3.21;67.71;100247.73;106156;1259;72001;-79
2024/03/06 07:20:14;;;;;;;48.20;32.30;;;;;;;3.23;67.58;100249.36;106275;1259;75031;-78
2024/03/06 07:22:42;;;;;;;47.50;30.80;;;;;;;3.26;67.44;100249.10;105995;1258;59750;-78
2024/03/06 07:25:10;;;;;;;47.20;28.80;;;;;;;3.31;67.29;100253.29;106042;1253;59637;-78
2024/03/06 07:27:38;;;;;;;38.70;26.40;;;;;;;3.37;66.55;100253.46;108132;1253;72421;-75
2024/03/06 07:30:07;;;;;;;43.00;28.50;;;;;;;3.37;66.42;100260.80;108620;1253;69160;-76
2024/03/06 07:32:36;;;;;;;43.50;27.40;;;;;;;3.36;66.48;100262.95;107128;1258;70920;-78
2024/03/06 07:35:04;;;;;;;42.70;28.20;;;;;;;3.36;66.28;100263.84;106028;1253;59713;-76
2024/03/06 07:37:33;;;;;;;40.30;27.70;;;;;;;3.32;65.88;100260.40;105759;1253;62256;-77
2024/03/06 07:40:02;;;;;;;44.60;28.00;;;;;;;3.28;65.81;100267.35;105734;1257;74086;-75
2024/03/06 07:42:29;;;;;;;43.20;28.40;;;;;;;3.25;65.74;100269.11;105914;1257;72602;-74
2024/03/06 07:44:57;;;;;;;43.80;27.70;;;;;;;3.25;65.71;100265.65;105532;1259;71180;-75
2024/03/06 07:47:24;;;;;;;39.60;26.90;;;;;;;3.28;65.74;100271.95;105715;1255;59734;-76
2024/03/06 07:49:52;;;;;;;38.30;27.20;;;;;;;3.29;65.57;100268.88;105712;1258;60129;-77
2024/03/06 07:52:20;;;;;;;44.00;29.20;;;;;;;3.27;65.57;100267.77;105848;1258;73102;-78
2024/03/06 07:54:47;;;;;;;45.90;29.70;;;;;;;3.31;65.63;100271.90;105846;1260;69265;-78
2024/03/06 07:57:15;;;;;;;44.10;29.20;;;;;;;3.36;65.80;100272.23;105935;1256;72059;-78
2024/03/06 07:59:42;;;;;;;43.10;29.40;;;;;;;3.43;65.52;100268.58;105963;1258;59748;-80
2024/03/06 08:02:10;;;;;;;41.70;28.60;;;;;;;3.50;65.37;100270.73;105908;1254;60251;-79
2024/03/06 08:04:37;;;;;;;42.70;27.60;;;;;;;3.56;65.24;100271.02;105931;1261;73247;-78
2024/03/06 08:07:05;;;;;;;43.10;29.40;;;;;;;3.59;64.91;100271.66;107040;1256;70468;-78
2024/03/06 08:09:33;;;;;;;42.90;29.00;;;;;;;3.62;64.92;100274.09;106961;1256;71677;-79
2024/03/06 08:12:00;;;;;;;45.10;29.00;;;;;;;3.66;64.56;100275.69;106490;1256;59661;-78
2024/03/06 08:14:28;;;;;;;46.40;28.40;;;;;;;3.69;64.33;100278.10;105784;1257;62295;-75
2024/03/06 08:16:56;;;;;;;39.30;27.10;;;;;;;3.73;64.20;100279.21;105686;1256;72052;-75
2024/03/06 08:19:24;;;;;;;39.40;25.50;;;;;;;3.77;64.14;100278.94;106642;1255;70192;-74
2024/03/06 08:21:52;;;;;;;40.10;28.00;;;;;;;3.83;63.65;100281.48;108766;1256;70334;-75
2024/03/06 08:24:20;;;;;;;35.80;25.50;;;;;;;3.89;63.87;100285.66;107710;1259;60099;-76
2024/03/06 08:26:48;;;;;;;39.40;27.00;;;;;;;3.95;63.58;100286.05;105802;1256;60343;-77
2024/03/06 08:29:15;;;;;;;38.70;25.70;;;;;;;4.03;63.17;100286.37;105886;1254;72056;-79
2024/03/06 08:31:43;;;;;;;34.10;24.60;;;;;;;4.10;63.05;100288.25;105727;1256;72213;-77
2024/03/06 08:34:11;;;;;;;34.00;24.10;;;;;;;4.21;62.73;100285.23;105971;1258;73116;-76
2024/03/06 08:36:38;;;;;;;32.10;23.70;;;;;;;4.34;62.65;100289.86;105411;1253;61469;-78
2024/03/06 08:39:06;;;;;;;36.10;24.00;;;;;;;4.49;61.97;100288.36;105756;1258;59537;-75
2024/03/06 08:41:34;;;;;;;32.70;24.00;;;;;;;4.62;61.92;100285.95;105779;1261;73245;-78
2024/03/06 08:44:03;;;;;;;33.90;24.70;;;;;;;4.80;61.28;100291.45;105938;1252;70843;-77
2024/03/06 08:46:30;;;;;;;35.40;25.70;;;;;;;4.94;61.10;100291.30;105806;1259;74901;-78
2024/03/06 08:48:58;;;;;;;34.60;23.70;;;;;;;5.10;60.81;100300.19;105853;1254;60542;-75
2024/03/06 08:51:30;;;;;;;36.80;26.50;;;;;;;5.24;60.18;100294.73;106014;1253;60517;-72
2024/03/06 08:53:57;;;;;;;37.60;26.40;;;;;;;5.30;59.82;100297.73;105787;1253;74890;-75
2024/03/06 08:56:25;;;;;;;38.10;27.10;;;;;;;5.31;59.65;100300.14;105371;1253;70537;-73
2024/03/06 08:58:53;;;;;;;36.70;25.90;;;;;;;5.24;59.57;100302.95;105798;1256;74410;-73
2024/03/06 09:01:21;;;;;;;36.90;26.00;;;;;;;5.20;59.53;100302.63;105491;1258;60300;-74
2024/03/06 09:03:48;;;;;;;40.00;25.90;;;;;;;5.10;59.79;100303.36;106006;1253;60598;-74
2024/03/06 09:06:16;;;;;;;39.10;26.00;;;;;;;4.99;59.52;100305.60;106186;1259;73699;-73
2024/03/06 09:08:43;;;;;;;36.70;26.30;;;;;;;4.85;59.77;100307.39;105648;1254;71306;-73
2024/03/06 09:11:12;;;;;;;39.00;26.50;;;;;;;4.74;60.11;100312.30;105874;1253;72959;-74
2024/03/06 09:13:40;;;;;;;35.80;25.60;;;;;;;4.69;60.42;100311.23;106194;1253;60629;-75
2024/03/06 09:16:08;;;;;;;33.80;23.80;;;;;;;4.65;60.31;100309.05;107867;1252;61169;-74
2024/03/06 09:18:36;;;;;;;33.50;24.60;;;;;;;4.66;60.38;100308.34;107120;1253;72875;-73
2024/03/06 09:21:04;;;;;;;33.00;24.30;;;;;;;4.64;60.57;100311.59;105681;1254;71720;-74
2024/03/06 09:23:32;;;;;;;32.60;24.70;;;;;;;4.67;60.27;100311.93;105986;1256;73262;-73
2024/03/06 09:26:01;;;;;;;35.10;24.60;;;;;;;4.69;60.38;100313.16;105670;1257;60496;-74
2024/03/06 09:28:29;;;;;;;34.40;23.10;;;;;;;4.74;60.25;100312.66;106019;1252;60482;-73
2024/03/06 09:30:57;;;;;;;40.20;24.40;;;;;;;4.78;60.13;100315.84;105847;1254;73891;-72
2024/03/06 09:33:24;;;;;;;31.80;23.00;;;;;;;4.83;60.15;100314.77;105985;1253;71141;-75
2024/03/06 09:35:52;;;;;;;31.60;22.80;;;;;;;4.86;60.05;100315.03;105621;1253;72816;-75
2024/03/06 09:38:20;;;;;;;32.10;23.00;;;;;;;4.91;59.92;100319.06;106000;1251;60592;-74
2024/03/06 09:40:49;;;;;;;30.00;21.20;;;;;;;4.90;59.75;100322.94;106009;1258;60611;-74
2024/03/06 09:43:17;;;;;;;30.70;22.40;;;;;;;4.90;59.73;100322.64;105605;1257;76103;-75
2024/03/06 09:45:45;;;;;;;30.30;22.60;;;;;;;4.86;59.63;100330.64;105889;1258;72995;-76
2024/03/06 09:48:13;;;;;;;31.70;23.20;;;;;;;4.82;59.61;100330.81;105750;1252;74918;-75
2024/03/06 09:50:44;;;;;;;30.60;23.20;;;;;;;4.79;59.78;100334.73;105909;1253;60536;-76
2024/03/06 09:53:12;;;;;;;32.20;22.00;;;;;;;4.80;60.06;100331.52;105899;1258;61006;-76
2024/03/06 09:55:41;;;;;;;31.20;22.50;;;;;;;4.76;59.69;100337.05;105712;1253;74945;-76
2024/03/06 09:58:08;;;;;;;35.00;22.50;;;;;;;4.70;59.86;100338.36;105923;1253;72627;-74
2024/03/06 10:00:36;;;;;;;31.40;22.30;;;;;;;4.65;59.94;100336.66;106105;1258;72493;-74
2024/03/06 10:03:08;;;;;;;34.10;21.70;;;;;;;4.61;60.12;100338.91;105897;1256;60546;-74
2024/03/06 10:05:36;;;;;;;31.50;22.90;;;;;;;4.56;60.16;100343.67;106049;1252;60594;-73
2024/03/06 10:08:04;;;;;;;33.90;24.50;;;;;;;4.56;60.10;100345.96;108029;1253;72575;-75
2024/03/06 10:10:32;;;;;;;36.50;23.80;;;;;;;4.54;60.04;100341.50;107563;1258;70676;-76
2024/03/06 10:13:00;;;;;;;30.60;24.10;;;;;;;4.52;60.33;100344.30;105802;1258;74641;-72
2024/03/06 10:15:31;;;;;;;37.60;23.80;;;;;;;4.50;60.19;100341.41;106021;1259;60368;-74
2024/03/06 10:18:14;;;;;;;29.30;21.80;;;;;;;4.50;60.11;100343.73;105968;1258;60410;-76
2024/03/06 10:20:43;;;;;;;31.20;22.20;;;;;;;4.50;59.77;100340.92;105877;1253;74724;-75
2024/03/06 10:23:11;;;;;;;31.80;22.00;;;;;;;4.47;59.76;100337.83;105924;1253;72222;-75
2024/03/06 10:25:39;;;;;;;30.90;22.00;;;;;;;4.46;59.92;100343.16;105714;1253;72202;-74
2024/03/06 10:28:09;;;;;;;36.60;23.10;;;;;;;4.50;59.90;100342.87;105783;1257;60809;-75
2024/03/06 10:30:41;;;;;;;31.60;21.90;;;;;;;4.46;59.84;100341.71;105873;1256;60541;-77
2024/03/06 10:33:15;;;;;;;29.90;21.50;;;;;;;4.49;59.81;100338.65;105718;1258;74144;-75
2024/03/06 10:35:44;;;;;;;29.30;21.90;;;;;;;4.58;59.73;100344.39;106021;1254;70627;-75
2024/03/06 10:38:12;;;;;;;32.90;22.70;;;;;;;4.64;59.63;100343.53;106427;1251;73621;-77
2024/03/06 10:40:41;;;;;;;33.70;23.30;;;;;;;4.68;59.47;100342.70;105987;1257;60565;-76
2024/03/06 10:43:09;;;;;;;35.10;23.70;;;;;;;4.71;59.42;100344.44;105852;1251;61267;-77
2024/03/06 10:45:59;;;;;;;33.30;23.40;;;;;;;4.75;59.17;100343.64;105971;1259;76130;-76
2024/03/06 10:48:28;;;;;;;32.10;23.10;;;;;;;4.78;59.22;100340.64;105967;1256;69463;-76
2024/03/06 10:50:55;;;;;;;33.40;23.90;;;;;;;4.73;59.05;100344.14;105960;1255;72779;-80
2024/03/06 10:53:23;;;;;;;34.60;25.00;;;;;;;4.67;59.11;100340.67;106073;1259;60498;-77
2024/03/06 10:55:55;;;;;;;39.80;25.90;;;;;;;4.61;59.45;100342.55;106058;1251;62406;-75
2024/03/06 10:58:22;;;;;;;38.10;26.00;;;;;;;4.54;59.19;100344.51;106011;1251;73176;-79
2024/03/06 11:00:50;;;;;;;35.10;25.10;;;;;;;4.48;59.35;100347.70;107695;1251;71416;-74
2024/03/06 11:03:18;;;;;;;32.20;23.30;;;;;;;4.47;59.27;100345.54;108790;1254;73830;-75
2024/03/06 11:05:50;;;;;;;36.80;25.60;;;;;;;4.48;59.20;100347.20;107040;1258;60976;-76
2024/03/06 11:08:19;;;;;;;38.40;25.80;;;;;;;4.47;59.26;100344.79;106547;1254;60447;-75
2024/03/06 11:10:47;;;;;;;36.80;25.80;;;;;;;4.48;59.11;100349.31;105904;1253;72728;-75
2024/03/06 11:13:22;;;;;;;34.60;26.10;;;;;;;4.47;59.06;100353.04;105940;1259;71217;-75
2024/03/06 11:15:53;;;;;;;37.30;25.60;;;;;;;4.44;58.72;100355.58;105709;1257;72708;-75
2024/03/06 11:18:33;;;;;;;35.20;25.00;;;;;;;4.41;58.81;100353.91;105669;1258;60436;-76
2024/03/06 11:21:01;;;;;;;41.30;26.70;;;;;;;4.38;59.06;100354.47;105960;1256;60526;-76
2024/03/06 11:23:32;;;;;;;34.60;25.50;;;;;;;4.40;59.06;100358.30;105865;1254;74969;-76
2024/03/06 11:26:02;;;;;;;39.90;27.40;;;;;;;4.45;58.85;100357.23;105502;1259;69062;-75